sensor_id;sensor_type;location;lat;lon;timestamp;temperature;humidity
19586;DHT22;9939;49.246;9.106;2022-11-02T00:00:45;7.30;99.90
19586;DHT22;9939;49.246;9.106;2022-11-02T00:03:12;7.20;99.90
19586;DHT22;9939;49.246;9.106;2022-11-02T00:05:39;7.20;99.90
19586;DHT22;9939;49.246;9.106;2022-11-02T00:08:06;7.20;99.90
19586;DHT22;9939;49.246;9.106;2022-11-02T00:10:33;7.30;99.90
19586;DHT22;9939;49.246;9.106;2022-11-02T00:13:00;7.30;99.90
19586;DHT22;9939;49.246;9.106;2022-11-02T00:15:28;7.20;99.90
19586;DHT22;9939;49.246;9.106;2022-11-02T00:18:00;7.20;99.90
19586;DHT22;9939;49.246;9.106;2022-11-02T00:20:29;7.10;99.90
19586;DHT22;9939;49.246;9.106;2022-11-02T00:22:57;7.10;99.90
19586;DHT22;9939;49.246;9.106;2022-11-02T00:25:24;7.20;99.90
19586;DHT22;9939;49.246;9.106;2022-11-02T00:27:51;7.60;99.90
19586;DHT22;9939;49.246;9.106;2022-11-02T00:30:18;7.50;99.90
19586;DHT22;9939;49.246;9.106;2022-11-02T00:32:46;7.70;99.90
19586;DHT22;9939;49.246;9.106;2022-11-02T00:35:13;7.80;99.90
19586;DHT22;9939;49.246;9.106;2022-11-02T00:37:40;7.70;99.90
19586;DHT22;9939;49.246;9.106;2022-11-02T00:40:07;7.50;99.90
19586;DHT22;9939;49.246;9.106;2022-11-02T00:42:34;7.60;99.90
19586;DHT22;9939;49.246;9.106;2022-11-02T00:45:01;7.80;99.90
19586;DHT22;9939;49.246;9.106;2022-11-02T00:47:28;7.70;99.90
19586;DHT22;9939;49.246;9.106;2022-11-02T00:49:55;7.70;99.90
19586;DHT22;9939;49.246;9.106;2022-11-02T00:52:21;7.60;99.90
19586;DHT22;9939;49.246;9.106;2022-11-02T00:54:50;7.70;99.90
19586;DHT22;9939;49.246;9.106;2022-11-02T00:57:17;7.50;99.90
19586;DHT22;9939;49.246;9.106;2022-11-02T00:59:44;7.50;99.90
19586;DHT22;9939;49.246;9.106;2022-11-02T01:02:13;7.50;99.90
19586;DHT22;9939;49.246;9.106;2022-11-02T01:04:41;7.40;99.90
19586;DHT22;9939;49.246;9.106;2022-11-02T01:07:07;7.50;99.90
19586;DHT22;9939;49.246;9.106;2022-11-02T01:09:35;7.50;99.90
19586;DHT22;9939;49.246;9.106;2022-11-02T01:12:02;7.40;99.90
19586;DHT22;9939;49.246;9.106;2022-11-02T01:14:29;7.40;99.90
19586;DHT22;9939;49.246;9.106;2022-11-02T01:16:55;7.40;99.90
19586;DHT22;9939;49.246;9.106;2022-11-02T01:19:24;7.30;99.90
19586;DHT22;9939;49.246;9.106;2022-11-02T01:21:50;7.30;99.90
19586;DHT22;9939;49.246;9.106;2022-11-02T01:24:18;7.30;99.90
19586;DHT22;9939;49.246;9.106;2022-11-02T01:26:48;7.30;99.90
19586;DHT22;9939;49.246;9.106;2022-11-02T01:29:15;7.30;99.90
19586;DHT22;9939;49.246;9.106;2022-11-02T01:31:42;7.30;99.90
19586;DHT22;9939;49.246;9.106;2022-11-02T01:34:12;7.60;99.90
19586;DHT22;9939;49.246;9.106;2022-11-02T01:36:39;7.50;99.90
19586;DHT22;9939;49.246;9.106;2022-11-02T01:39:06;7.40;99.90
19586;DHT22;9939;49.246;9.106;2022-11-02T01:41:33;7.60;99.90
19586;DHT22;9939;49.246;9.106;2022-11-02T01:44:03;7.50;99.90
19586;DHT22;9939;49.246;9.106;2022-11-02T01:46:40;7.50;99.90
19586;DHT22;9939;49.246;9.106;2022-11-02T01:49:10;7.50;99.90
19586;DHT22;9939;49.246;9.106;2022-11-02T01:51:39;7.50;99.90
19586;DHT22;9939;49.246;9.106;2022-11-02T01:54:08;7.40;99.90
19586;DHT22;9939;49.246;9.106;2022-11-02T01:56:36;7.50;99.90
19586;DHT22;9939;49.246;9.106;2022-11-02T01:59:05;7.50;99.90
19586;DHT22;9939;49.246;9.106;2022-11-02T02:01:33;7.50;99.90
19586;DHT22;9939;49.246;9.106;2022-11-02T02:04:00;7.50;99.90
19586;DHT22;9939;49.246;9.106;2022-11-02T02:06:31;7.50;99.90
19586;DHT22;9939;49.246;9.106;2022-11-02T02:08:59;7.50;99.90
19586;DHT22;9939;49.246;9.106;2022-11-02T02:11:32;7.50;99.90
19586;DHT22;9939;49.246;9.106;2022-11-02T02:14:00;7.60;99.90
19586;DHT22;9939;49.246;9.106;2022-11-02T02:16:50;7.70;99.90
19586;DHT22;9939;49.246;9.106;2022-11-02T02:22:04;7.70;99.90
19586;DHT22;9939;49.246;9.106;2022-11-02T02:27:21;7.80;99.90
19586;DHT22;9939;49.246;9.106;2022-11-02T02:29:56;7.80;99.90
19586;DHT22;9939;49.246;9.106;2022-11-02T02:32:34;8.00;99.90
19586;DHT22;9939;49.246;9.106;2022-11-02T02:35:09;8.00;99.90
19586;DHT22;9939;49.246;9.106;2022-11-02T02:40:10;8.00;99.90
19586;DHT22;9939;49.246;9.106;2022-11-02T02:42:43;7.90;99.90
19586;DHT22;9939;49.246;9.106;2022-11-02T02:47:50;8.00;99.90
19586;DHT22;9939;49.246;9.106;2022-11-02T02:50:20;7.90;99.90
19586;DHT22;9939;49.246;9.106;2022-11-02T02:52:49;7.90;99.90
19586;DHT22;9939;49.246;9.106;2022-11-02T02:55:21;7.90;99.90
19586;DHT22;9939;49.246;9.106;2022-11-02T02:57:49;7.90;99.90
19586;DHT22;9939;49.246;9.106;2022-11-02T03:00:17;7.90;99.90
19586;DHT22;9939;49.246;9.106;2022-11-02T03:02:46;8.00;99.90
19586;DHT22;9939;49.246;9.106;2022-11-02T03:05:32;8.00;99.90
19586;DHT22;9939;49.246;9.106;2022-11-02T03:08:02;8.00;99.90
19586;DHT22;9939;49.246;9.106;2022-11-02T03:10:36;8.00;99.90
19586;DHT22;9939;49.246;9.106;2022-11-02T03:15:51;8.00;99.90
19586;DHT22;9939;49.246;9.106;2022-11-02T03:20:58;8.00;99.90
19586;DHT22;9939;49.246;9.106;2022-11-02T03:23:33;8.10;99.90
19586;DHT22;9939;49.246;9.106;2022-11-02T03:28:43;8.20;99.90
19586;DHT22;9939;49.246;9.106;2022-11-02T03:31:36;8.20;99.90
19586;DHT22;9939;49.246;9.106;2022-11-02T03:36:43;8.00;99.90
19586;DHT22;9939;49.246;9.106;2022-11-02T03:39:11;8.00;99.90
19586;DHT22;9939;49.246;9.106;2022-11-02T03:41:42;7.90;99.90
19586;DHT22;9939;49.246;9.106;2022-11-02T03:44:10;7.90;99.90
19586;DHT22;9939;49.246;9.106;2022-11-02T03:46:40;7.90;99.90
19586;DHT22;9939;49.246;9.106;2022-11-02T03:49:09;7.80;99.90
19586;DHT22;9939;49.246;9.106;2022-11-02T03:51:38;7.90;99.90
19586;DHT22;9939;49.246;9.106;2022-11-02T03:56:38;8.10;99.90
19586;DHT22;9939;49.246;9.106;2022-11-02T03:59:06;8.20;99.90
19586;DHT22;9939;49.246;9.106;2022-11-02T04:01:41;8.20;99.90
19586;DHT22;9939;49.246;9.106;2022-11-02T04:04:09;8.20;99.90
19586;DHT22;9939;49.246;9.106;2022-11-02T04:06:37;8.20;99.90
19586;DHT22;9939;49.246;9.106;2022-11-02T04:09:05;8.30;99.90
19586;DHT22;9939;49.246;9.106;2022-11-02T04:11:32;8.30;99.90
19586;DHT22;9939;49.246;9.106;2022-11-02T04:14:18;8.30;99.90
19586;DHT22;9939;49.246;9.106;2022-11-02T04:17:08;8.30;99.90
19586;DHT22;9939;49.246;9.106;2022-11-02T04:19:55;8.50;99.90
19586;DHT22;9939;49.246;9.106;2022-11-02T04:22:23;8.40;99.90
19586;DHT22;9939;49.246;9.106;2022-11-02T04:25:14;8.20;99.90
19586;DHT22;9939;49.246;9.106;2022-11-02T04:27:47;8.20;99.90
19586;DHT22;9939;49.246;9.106;2022-11-02T04:30:15;8.00;99.90
19586;DHT22;9939;49.246;9.106;2022-11-02T04:32:43;7.90;99.90
19586;DHT22;9939;49.246;9.106;2022-11-02T04:35:35;8.00;99.90
19586;DHT22;9939;49.246;9.106;2022-11-02T04:38:03;7.90;99.90
19586;DHT22;9939;49.246;9.106;2022-11-02T04:40:49;7.90;99.90
19586;DHT22;9939;49.246;9.106;2022-11-02T04:43:36;8.20;99.90
19586;DHT22;9939;49.246;9.106;2022-11-02T04:46:03;8.00;99.90
19586;DHT22;9939;49.246;9.106;2022-11-02T04:48:31;7.90;99.90
19586;DHT22;9939;49.246;9.106;2022-11-02T04:50:58;7.80;99.90
19586;DHT22;9939;49.246;9.106;2022-11-02T04:53:25;7.80;99.90
19586;DHT22;9939;49.246;9.106;2022-11-02T04:55:52;7.80;99.90
19586;DHT22;9939;49.246;9.106;2022-11-02T04:58:20;7.70;99.90
19586;DHT22;9939;49.246;9.106;2022-11-02T05:00:46;7.80;99.90
19586;DHT22;9939;49.246;9.106;2022-11-02T05:03:13;7.90;99.90
19586;DHT22;9939;49.246;9.106;2022-11-02T05:05:42;8.00;99.90
19586;DHT22;9939;49.246;9.106;2022-11-02T05:08:09;8.20;99.90
19586;DHT22;9939;49.246;9.106;2022-11-02T05:10:37;8.20;99.90
19586;DHT22;9939;49.246;9.106;2022-11-02T05:13:04;8.40;99.90
19586;DHT22;9939;49.246;9.106;2022-11-02T05:15:34;8.40;99.90
19586;DHT22;9939;49.246;9.106;2022-11-02T05:18:04;8.30;99.90
19586;DHT22;9939;49.246;9.106;2022-11-02T05:20:33;8.40;99.90
19586;DHT22;9939;49.246;9.106;2022-11-02T05:23:00;8.50;99.90
19586;DHT22;9939;49.246;9.106;2022-11-02T05:25:29;8.60;99.90
19586;DHT22;9939;49.246;9.106;2022-11-02T05:27:57;8.70;99.90
19586;DHT22;9939;49.246;9.106;2022-11-02T05:30:24;8.80;99.90
19586;DHT22;9939;49.246;9.106;2022-11-02T05:32:56;8.80;99.90
19586;DHT22;9939;49.246;9.106;2022-11-02T05:35:23;8.90;99.90
19586;DHT22;9939;49.246;9.106;2022-11-02T05:37:53;9.00;99.90
19586;DHT22;9939;49.246;9.106;2022-11-02T05:40:20;9.00;99.90
19586;DHT22;9939;49.246;9.106;2022-11-02T05:42:47;9.00;99.90
19586;DHT22;9939;49.246;9.106;2022-11-02T05:45:14;9.10;99.90
19586;DHT22;9939;49.246;9.106;2022-11-02T05:47:46;9.20;99.90
19586;DHT22;9939;49.246;9.106;2022-11-02T05:50:12;9.20;99.90
19586;DHT22;9939;49.246;9.106;2022-11-02T05:52:39;9.10;99.90
19586;DHT22;9939;49.246;9.106;2022-11-02T05:55:06;9.40;99.90
19586;DHT22;9939;49.246;9.106;2022-11-02T05:57:33;9.50;99.90
19586;DHT22;9939;49.246;9.106;2022-11-02T06:00:01;9.60;99.90
19586;DHT22;9939;49.246;9.106;2022-11-02T06:02:37;9.50;99.90
19586;DHT22;9939;49.246;9.106;2022-11-02T06:05:04;9.70;99.90
19586;DHT22;9939;49.246;9.106;2022-11-02T06:07:32;9.80;99.90
19586;DHT22;9939;49.246;9.106;2022-11-02T06:09:58;10.00;99.90
19586;DHT22;9939;49.246;9.106;2022-11-02T06:12:25;10.30;99.90
19586;DHT22;9939;49.246;9.106;2022-11-02T06:14:52;10.40;99.90
19586;DHT22;9939;49.246;9.106;2022-11-02T06:17:19;10.50;99.90
19586;DHT22;9939;49.246;9.106;2022-11-02T06:19:46;10.60;99.90
19586;DHT22;9939;49.246;9.106;2022-11-02T06:22:13;10.70;99.90
19586;DHT22;9939;49.246;9.106;2022-11-02T06:24:40;10.70;99.90
19586;DHT22;9939;49.246;9.106;2022-11-02T06:27:06;10.80;99.90
19586;DHT22;9939;49.246;9.106;2022-11-02T06:29:35;10.90;99.90
19586;DHT22;9939;49.246;9.106;2022-11-02T06:32:02;10.90;99.90
19586;DHT22;9939;49.246;9.106;2022-11-02T06:34:29;11.00;99.90
19586;DHT22;9939;49.246;9.106;2022-11-02T06:36:56;11.00;99.90
19586;DHT22;9939;49.246;9.106;2022-11-02T06:39:22;11.00;99.90
19586;DHT22;9939;49.246;9.106;2022-11-02T06:41:50;11.00;99.90
19586;DHT22;9939;49.246;9.106;2022-11-02T06:44:17;11.10;99.90
19586;DHT22;9939;49.246;9.106;2022-11-02T06:46:44;11.10;99.90
19586;DHT22;9939;49.246;9.106;2022-11-02T06:49:11;11.20;99.90
19586;DHT22;9939;49.246;9.106;2022-11-02T06:51:37;11.10;99.90
19586;DHT22;9939;49.246;9.106;2022-11-02T06:54:04;11.00;99.90
19586;DHT22;9939;49.246;9.106;2022-11-02T06:56:34;11.00;99.90
19586;DHT22;9939;49.246;9.106;2022-11-02T06:59:01;11.00;99.90
19586;DHT22;9939;49.246;9.106;2022-11-02T07:01:28;11.00;99.90
19586;DHT22;9939;49.246;9.106;2022-11-02T07:03:55;11.10;99.90
19586;DHT22;9939;49.246;9.106;2022-11-02T07:06:22;11.00;99.90
19586;DHT22;9939;49.246;9.106;2022-11-02T07:08:49;11.10;99.90
19586;DHT22;9939;49.246;9.106;2022-11-02T07:11:16;11.20;99.90
19586;DHT22;9939;49.246;9.106;2022-11-02T07:13:43;11.10;99.90
19586;DHT22;9939;49.246;9.106;2022-11-02T07:16:10;11.30;99.90
19586;DHT22;9939;49.246;9.106;2022-11-02T07:18:37;11.50;99.90
19586;DHT22;9939;49.246;9.106;2022-11-02T07:21:04;11.40;99.90
19586;DHT22;9939;49.246;9.106;2022-11-02T07:23:31;11.50;99.90
19586;DHT22;9939;49.246;9.106;2022-11-02T07:26:01;11.40;99.90
19586;DHT22;9939;49.246;9.106;2022-11-02T07:28:28;11.20;99.90
19586;DHT22;9939;49.246;9.106;2022-11-02T07:30:55;11.30;99.90
19586;DHT22;9939;49.246;9.106;2022-11-02T07:33:22;11.40;99.90
19586;DHT22;9939;49.246;9.106;2022-11-02T07:35:49;11.50;99.90
19586;DHT22;9939;49.246;9.106;2022-11-02T07:38:16;11.60;99.90
19586;DHT22;9939;49.246;9.106;2022-11-02T07:40:43;11.90;99.90
19586;DHT22;9939;49.246;9.106;2022-11-02T07:43:13;11.80;99.90
19586;DHT22;9939;49.246;9.106;2022-11-02T07:45:46;11.80;99.90
19586;DHT22;9939;49.246;9.106;2022-11-02T07:48:13;12.00;99.90
19586;DHT22;9939;49.246;9.106;2022-11-02T07:50:40;12.10;99.90
19586;DHT22;9939;49.246;9.106;2022-11-02T07:53:07;12.00;99.90
19586;DHT22;9939;49.246;9.106;2022-11-02T07:55:34;12.00;99.90
19586;DHT22;9939;49.246;9.106;2022-11-02T07:58:04;12.10;99.90
19586;DHT22;9939;49.246;9.106;2022-11-02T08:00:36;12.20;99.90
19586;DHT22;9939;49.246;9.106;2022-11-02T08:03:04;12.40;99.90
19586;DHT22;9939;49.246;9.106;2022-11-02T08:05:34;12.50;99.90
19586;DHT22;9939;49.246;9.106;2022-11-02T08:08:07;12.50;99.90
19586;DHT22;9939;49.246;9.106;2022-11-02T08:10:36;12.60;99.90
19586;DHT22;9939;49.246;9.106;2022-11-02T08:13:11;12.70;99.90
19586;DHT22;9939;49.246;9.106;2022-11-02T08:15:39;12.90;99.90
19586;DHT22;9939;49.246;9.106;2022-11-02T08:20:35;13.20;99.90
19586;DHT22;9939;49.246;9.106;2022-11-02T08:23:04;13.20;99.90
19586;DHT22;9939;49.246;9.106;2022-11-02T08:25:31;13.20;99.90
19586;DHT22;9939;49.246;9.106;2022-11-02T08:27:59;13.40;99.90
19586;DHT22;9939;49.246;9.106;2022-11-02T08:30:27;13.50;99.90
19586;DHT22;9939;49.246;9.106;2022-11-02T08:32:55;13.50;99.90
19586;DHT22;9939;49.246;9.106;2022-11-02T08:35:27;13.30;99.90
19586;DHT22;9939;49.246;9.106;2022-11-02T08:37:56;13.00;99.90
19586;DHT22;9939;49.246;9.106;2022-11-02T08:40:23;12.90;99.90
19586;DHT22;9939;49.246;9.106;2022-11-02T08:43:01;12.80;99.90
19586;DHT22;9939;49.246;9.106;2022-11-02T08:45:30;12.80;99.90
19586;DHT22;9939;49.246;9.106;2022-11-02T08:48:18;12.80;99.90
19586;DHT22;9939;49.246;9.106;2022-11-02T08:50:47;13.00;99.90
19586;DHT22;9939;49.246;9.106;2022-11-02T08:53:14;13.10;99.90
19586;DHT22;9939;49.246;9.106;2022-11-02T08:55:42;13.10;99.90
19586;DHT22;9939;49.246;9.106;2022-11-02T08:58:09;13.00;99.90
19586;DHT22;9939;49.246;9.106;2022-11-02T09:00:36;13.20;99.90
19586;DHT22;9939;49.246;9.106;2022-11-02T09:03:11;13.30;99.90
19586;DHT22;9939;49.246;9.106;2022-11-02T09:05:41;13.40;99.90
19586;DHT22;9939;49.246;9.106;2022-11-02T09:08:12;13.40;99.90
19586;DHT22;9939;49.246;9.106;2022-11-02T09:10:40;13.60;99.90
19586;DHT22;9939;49.246;9.106;2022-11-02T09:13:10;13.60;99.90
19586;DHT22;9939;49.246;9.106;2022-11-02T09:15:37;13.60;99.90
19586;DHT22;9939;49.246;9.106;2022-11-02T09:18:06;13.60;99.90
19586;DHT22;9939;49.246;9.106;2022-11-02T09:20:34;13.70;99.90
19586;DHT22;9939;49.246;9.106;2022-11-02T09:23:01;13.60;99.90
19586;DHT22;9939;49.246;9.106;2022-11-02T09:25:28;13.70;99.90
19586;DHT22;9939;49.246;9.106;2022-11-02T09:27:56;13.60;99.90
19586;DHT22;9939;49.246;9.106;2022-11-02T09:30:25;13.90;99.90
19586;DHT22;9939;49.246;9.106;2022-11-02T09:32:56;14.00;99.90
19586;DHT22;9939;49.246;9.106;2022-11-02T09:35:25;13.90;99.90
19586;DHT22;9939;49.246;9.106;2022-11-02T09:37:52;13.90;99.90
19586;DHT22;9939;49.246;9.106;2022-11-02T09:40:20;14.00;99.90
19586;DHT22;9939;49.246;9.106;2022-11-02T09:43:03;14.00;99.90
19586;DHT22;9939;49.246;9.106;2022-11-02T09:45:34;13.90;99.90
19586;DHT22;9939;49.246;9.106;2022-11-02T09:48:04;14.00;99.90
19586;DHT22;9939;49.246;9.106;2022-11-02T09:50:58;14.30;99.90
19586;DHT22;9939;49.246;9.106;2022-11-02T09:54:15;14.60;99.90
19586;DHT22;9939;49.246;9.106;2022-11-02T09:56:16;14.80;99.90
19586;DHT22;9939;49.246;9.106;2022-11-02T09:58:43;15.00;99.90
19586;DHT22;9939;49.246;9.106;2022-11-02T10:06:28;18.10;99.90
19586;DHT22;9939;49.246;9.106;2022-11-02T10:09:31;18.60;99.90
19586;DHT22;9939;49.246;9.106;2022-11-02T10:12:13;18.80;99.90
19586;DHT22;9939;49.246;9.106;2022-11-02T10:14:58;18.80;99.90
19586;DHT22;9939;49.246;9.106;2022-11-02T10:17:28;18.70;99.90
19586;DHT22;9939;49.246;9.106;2022-11-02T10:20:02;18.30;99.90
19586;DHT22;9939;49.246;9.106;2022-11-02T10:22:35;17.60;99.90
19586;DHT22;9939;49.246;9.106;2022-11-02T10:25:06;17.30;99.90
19586;DHT22;9939;49.246;9.106;2022-11-02T10:27:37;16.70;99.90
19586;DHT22;9939;49.246;9.106;2022-11-02T10:30:14;16.40;99.90
19586;DHT22;9939;49.246;9.106;2022-11-02T10:32:42;16.70;99.90
19586;DHT22;9939;49.246;9.106;2022-11-02T10:38:36;17.00;99.90
19586;DHT22;9939;49.246;9.106;2022-11-02T10:41:27;16.40;99.90
19586;DHT22;9939;49.246;9.106;2022-11-02T10:50:01;18.70;99.90
19586;DHT22;9939;49.246;9.106;2022-11-02T10:52:40;19.70;99.90
19586;DHT22;9939;49.246;9.106;2022-11-02T10:55:54;20.30;99.90
19586;DHT22;9939;49.246;9.106;2022-11-02T10:58:17;20.10;99.90
19586;DHT22;9939;49.246;9.106;2022-11-02T11:00:46;21.30;99.90
19586;DHT22;9939;49.246;9.106;2022-11-02T11:03:17;22.60;99.90
19586;DHT22;9939;49.246;9.106;2022-11-02T11:08:42;21.90;99.90
19586;DHT22;9939;49.246;9.106;2022-11-02T11:11:17;21.50;99.90
19586;DHT22;9939;49.246;9.106;2022-11-02T11:13:56;21.80;99.90
19586;DHT22;9939;49.246;9.106;2022-11-02T11:16:54;21.70;99.90
19586;DHT22;9939;49.246;9.106;2022-11-02T11:19:51;21.10;99.90
19586;DHT22;9939;49.246;9.106;2022-11-02T11:22:29;20.10;99.90
19586;DHT22;9939;49.246;9.106;2022-11-02T11:25:21;20.90;99.90
19586;DHT22;9939;49.246;9.106;2022-11-02T11:27:55;22.60;99.90
19586;DHT22;9939;49.246;9.106;2022-11-02T11:30:26;23.40;99.90
19586;DHT22;9939;49.246;9.106;2022-11-02T11:33:14;24.00;99.90
19586;DHT22;9939;49.246;9.106;2022-11-02T11:35:47;25.60;99.90
19586;DHT22;9939;49.246;9.106;2022-11-02T11:38:18;26.90;99.90
19586;DHT22;9939;49.246;9.106;2022-11-02T11:40:48;26.10;99.90
19586;DHT22;9939;49.246;9.106;2022-11-02T11:43:22;25.60;99.90
19586;DHT22;9939;49.246;9.106;2022-11-02T11:46:01;25.30;99.90
19586;DHT22;9939;49.246;9.106;2022-11-02T11:51:38;20.40;99.90
19586;DHT22;9939;49.246;9.106;2022-11-02T11:57:27;18.00;99.90
19586;DHT22;9939;49.246;9.106;2022-11-02T11:59:56;17.30;99.90
19586;DHT22;9939;49.246;9.106;2022-11-02T12:04:58;20.20;99.90
19586;DHT22;9939;49.246;9.106;2022-11-02T12:07:29;21.90;99.90
19586;DHT22;9939;49.246;9.106;2022-11-02T12:10:01;21.60;99.90
19586;DHT22;9939;49.246;9.106;2022-11-02T12:12:38;22.10;99.90
19586;DHT22;9939;49.246;9.106;2022-11-02T12:20:55;22.10;99.90
19586;DHT22;9939;49.246;9.106;2022-11-02T12:31:50;21.90;99.90
19586;DHT22;9939;49.246;9.106;2022-11-02T12:36:49;20.20;99.90
19586;DHT22;9939;49.246;9.106;2022-11-02T12:42:11;19.40;99.90
19586;DHT22;9939;49.246;9.106;2022-11-02T12:47:24;21.50;99.90
19586;DHT22;9939;49.246;9.106;2022-11-02T12:54:53;23.80;99.90
19586;DHT22;9939;49.246;9.106;2022-11-02T12:57:21;24.60;99.90
19586;DHT22;9939;49.246;9.106;2022-11-02T12:59:50;24.40;99.90
19586;DHT22;9939;49.246;9.106;2022-11-02T13:02:23;24.70;99.90
19586;DHT22;9939;49.246;9.106;2022-11-02T13:04:52;23.90;99.90
19586;DHT22;9939;49.246;9.106;2022-11-02T13:07:24;25.00;99.90
19586;DHT22;9939;49.246;9.106;2022-11-02T13:10:01;23.80;99.90
19586;DHT22;9939;49.246;9.106;2022-11-02T13:12:29;24.10;99.90
19586;DHT22;9939;49.246;9.106;2022-11-02T13:14:57;22.10;99.90
19586;DHT22;9939;49.246;9.106;2022-11-02T13:19:59;18.50;99.90
19586;DHT22;9939;49.246;9.106;2022-11-02T13:22:29;17.50;99.90
19586;DHT22;9939;49.246;9.106;2022-11-02T13:25:19;17.00;99.90
19586;DHT22;9939;49.246;9.106;2022-11-02T13:27:51;16.50;99.90
19586;DHT22;9939;49.246;9.106;2022-11-02T13:30:19;16.10;99.90
19586;DHT22;9939;49.246;9.106;2022-11-02T13:32:52;15.90;99.90
19586;DHT22;9939;49.246;9.106;2022-11-02T13:35:23;15.60;99.90
19586;DHT22;9939;49.246;9.106;2022-11-02T13:37:52;15.50;99.90
19586;DHT22;9939;49.246;9.106;2022-11-02T13:40:22;15.50;99.90
19586;DHT22;9939;49.246;9.106;2022-11-02T13:43:33;15.30;99.90
19586;DHT22;9939;49.246;9.106;2022-11-02T13:50:45;15.30;99.90
19586;DHT22;9939;49.246;9.106;2022-11-02T13:53:17;15.20;99.90
19586;DHT22;9939;49.246;9.106;2022-11-02T13:55:53;15.00;99.90
19586;DHT22;9939;49.246;9.106;2022-11-02T14:00:52;15.10;99.90
19586;DHT22;9939;49.246;9.106;2022-11-02T14:03:27;15.20;99.90
19586;DHT22;9939;49.246;9.106;2022-11-02T14:05:56;15.20;99.90
19586;DHT22;9939;49.246;9.106;2022-11-02T14:45:34;15.50;99.90
19586;DHT22;9939;49.246;9.106;2022-11-02T14:48:10;15.70;99.90
19586;DHT22;9939;49.246;9.106;2022-11-02T14:50:39;15.60;99.90
19586;DHT22;9939;49.246;9.106;2022-11-02T14:53:18;15.70;99.90
19586;DHT22;9939;49.246;9.106;2022-11-02T14:55:54;15.80;99.90
19586;DHT22;9939;49.246;9.106;2022-11-02T14:58:23;15.70;99.90
19586;DHT22;9939;49.246;9.106;2022-11-02T15:06:05;15.50;99.90
19586;DHT22;9939;49.246;9.106;2022-11-02T15:08:54;15.40;99.90
19586;DHT22;9939;49.246;9.106;2022-11-02T15:16:56;15.20;99.90
19586;DHT22;9939;49.246;9.106;2022-11-02T15:19:57;15.10;99.90
19586;DHT22;9939;49.246;9.106;2022-11-02T15:27:35;14.50;99.90
19586;DHT22;9939;49.246;9.106;2022-11-02T15:30:03;14.30;99.90
19586;DHT22;9939;49.246;9.106;2022-11-02T15:32:31;14.10;99.90
19586;DHT22;9939;49.246;9.106;2022-11-02T15:35:00;13.90;99.90
19586;DHT22;9939;49.246;9.106;2022-11-02T15:37:30;13.80;99.90
19586;DHT22;9939;49.246;9.106;2022-11-02T15:40:08;13.70;99.90
19586;DHT22;9939;49.246;9.106;2022-11-02T15:45:35;13.40;99.90
19586;DHT22;9939;49.246;9.106;2022-11-02T15:56:46;12.30;99.90
19586;DHT22;9939;49.246;9.106;2022-11-02T16:04:50;11.70;99.90
19586;DHT22;9939;49.246;9.106;2022-11-02T16:07:18;11.30;99.90
19586;DHT22;9939;49.246;9.106;2022-11-02T16:09:46;11.10;99.90
19586;DHT22;9939;49.246;9.106;2022-11-02T16:12:23;10.70;99.90
19586;DHT22;9939;49.246;9.106;2022-11-02T16:14:57;10.60;99.90
19586;DHT22;9939;49.246;9.106;2022-11-02T16:17:29;10.60;99.90
19586;DHT22;9939;49.246;9.106;2022-11-02T16:20:23;10.30;99.90
19586;DHT22;9939;49.246;9.106;2022-11-02T16:23:05;10.20;99.90
19586;DHT22;9939;49.246;9.106;2022-11-02T16:25:38;10.10;99.90
19586;DHT22;9939;49.246;9.106;2022-11-02T16:28:21;10.00;99.90
19586;DHT22;9939;49.246;9.106;2022-11-02T16:33:56;9.90;99.90
19586;DHT22;9939;49.246;9.106;2022-11-02T16:36:45;9.70;99.90
19586;DHT22;9939;49.246;9.106;2022-11-02T16:39:26;9.60;99.90
19586;DHT22;9939;49.246;9.106;2022-11-02T16:41:55;9.60;99.90
19586;DHT22;9939;49.246;9.106;2022-11-02T16:49:35;9.50;99.90
19586;DHT22;9939;49.246;9.106;2022-11-02T16:52:27;9.30;99.90
19586;DHT22;9939;49.246;9.106;2022-11-02T16:54:55;9.10;99.90
19586;DHT22;9939;49.246;9.106;2022-11-02T16:57:25;9.00;99.90
19586;DHT22;9939;49.246;9.106;2022-11-02T17:00:14;9.00;99.90
19586;DHT22;9939;49.246;9.106;2022-11-02T17:02:43;8.80;99.90
19586;DHT22;9939;49.246;9.106;2022-11-02T17:05:19;9.00;99.90
19586;DHT22;9939;49.246;9.106;2022-11-02T17:10:32;8.90;99.90
19586;DHT22;9939;49.246;9.106;2022-11-02T17:13:00;8.70;99.90
19586;DHT22;9939;49.246;9.106;2022-11-02T17:15:30;8.70;99.90
19586;DHT22;9939;49.246;9.106;2022-11-02T17:20:35;8.60;99.90
19586;DHT22;9939;49.246;9.106;2022-11-02T17:23:29;8.70;99.90
19586;DHT22;9939;49.246;9.106;2022-11-02T17:28:44;8.80;99.90
19586;DHT22;9939;49.246;9.106;2022-11-02T17:31:40;8.50;99.90
19586;DHT22;9939;49.246;9.106;2022-11-02T17:34:16;8.40;99.90
19586;DHT22;9939;49.246;9.106;2022-11-02T17:36:46;8.30;99.90
19586;DHT22;9939;49.246;9.106;2022-11-02T17:39:16;8.30;99.90
19586;DHT22;9939;49.246;9.106;2022-11-02T17:41:51;8.20;99.90
19586;DHT22;9939;49.246;9.106;2022-11-02T17:44:38;8.20;99.90
19586;DHT22;9939;49.246;9.106;2022-11-02T17:47:11;8.20;99.90
19586;DHT22;9939;49.246;9.106;2022-11-02T17:49:38;8.10;99.90
19586;DHT22;9939;49.246;9.106;2022-11-02T17:52:05;8.00;99.90
19586;DHT22;9939;49.246;9.106;2022-11-02T17:54:32;8.10;99.90
19586;DHT22;9939;49.246;9.106;2022-11-02T17:57:00;8.20;99.90
19586;DHT22;9939;49.246;9.106;2022-11-02T17:59:27;8.30;99.90
19586;DHT22;9939;49.246;9.106;2022-11-02T18:01:55;8.10;99.90
19586;DHT22;9939;49.246;9.106;2022-11-02T18:04:22;8.00;99.90
19586;DHT22;9939;49.246;9.106;2022-11-02T18:06:49;8.10;99.90
19586;DHT22;9939;49.246;9.106;2022-11-02T18:09:16;8.20;99.90
19586;DHT22;9939;49.246;9.106;2022-11-02T18:11:45;8.20;99.90
19586;DHT22;9939;49.246;9.106;2022-11-02T18:14:14;8.10;99.90
19586;DHT22;9939;49.246;9.106;2022-11-02T18:16:43;8.10;99.90
19586;DHT22;9939;49.246;9.106;2022-11-02T18:19:10;8.10;99.90
19586;DHT22;9939;49.246;9.106;2022-11-02T18:21:38;7.90;99.90
19586;DHT22;9939;49.246;9.106;2022-11-02T18:24:05;7.90;99.90
19586;DHT22;9939;49.246;9.106;2022-11-02T18:26:33;7.90;99.90
19586;DHT22;9939;49.246;9.106;2022-11-02T18:29:02;7.80;99.90
19586;DHT22;9939;49.246;9.106;2022-11-02T18:31:31;7.70;99.90
19586;DHT22;9939;49.246;9.106;2022-11-02T18:33:58;7.70;99.90
19586;DHT22;9939;49.246;9.106;2022-11-02T18:36:25;7.60;99.90
19586;DHT22;9939;49.246;9.106;2022-11-02T18:38:52;7.60;99.90
19586;DHT22;9939;49.246;9.106;2022-11-02T18:41:19;7.60;99.90
19586;DHT22;9939;49.246;9.106;2022-11-02T18:44:02;7.80;99.90
19586;DHT22;9939;49.246;9.106;2022-11-02T18:46:36;7.60;99.90
19586;DHT22;9939;49.246;9.106;2022-11-02T18:49:03;7.50;99.90
19586;DHT22;9939;49.246;9.106;2022-11-02T18:51:30;7.50;99.90
19586;DHT22;9939;49.246;9.106;2022-11-02T18:54:03;7.50;99.90
19586;DHT22;9939;49.246;9.106;2022-11-02T18:56:30;7.80;99.90
19586;DHT22;9939;49.246;9.106;2022-11-02T18:58:57;7.70;99.90
19586;DHT22;9939;49.246;9.106;2022-11-02T19:01:25;7.70;99.90
19586;DHT22;9939;49.246;9.106;2022-11-02T19:03:59;7.60;99.90
19586;DHT22;9939;49.246;9.106;2022-11-02T19:06:28;7.40;99.90
19586;DHT22;9939;49.246;9.106;2022-11-02T19:09:15;7.30;99.90
19586;DHT22;9939;49.246;9.106;2022-11-02T19:12:05;7.40;99.90
19586;DHT22;9939;49.246;9.106;2022-11-02T19:14:35;7.50;99.90
19586;DHT22;9939;49.246;9.106;2022-11-02T19:17:03;7.40;99.90